createdAt,value
2022-10-20T00:03:21.857Z,0
2022-10-20T00:08:04.172Z,0
2022-10-20T00:12:45.581Z,0
2022-10-20T00:17:27.796Z,0
2022-10-20T00:22:10.102Z,0
2022-10-20T00:26:52.315Z,0
2022-10-20T00:31:34.621Z,0
2022-10-20T00:36:16.932Z,0
2022-10-20T00:40:59.145Z,0
2022-10-20T00:45:41.471Z,0
2022-10-20T00:50:23.764Z,0
2022-10-20T00:55:05.978Z,0
2022-10-20T00:59:48.286Z,0
2022-10-20T01:04:30.606Z,0
2022-10-20T01:09:12.909Z,0
2022-10-20T01:13:54.232Z,0
2022-10-20T01:18:35.427Z,0
2022-10-20T01:23:16.742Z,0
2022-10-20T01:27:58.049Z,0
2022-10-20T01:32:40.362Z,0
2022-10-20T01:37:22.668Z,0
2022-10-20T01:42:04.887Z,0
2022-10-20T01:46:47.193Z,0
2022-10-20T01:51:29.517Z,0
2022-10-20T01:56:11.842Z,0
2022-10-20T02:00:54.022Z,0
2022-10-20T02:05:36.336Z,0
2022-10-20T02:10:18.657Z,0
2022-10-20T02:15:00.858Z,0
2022-10-20T02:19:43.176Z,0
2022-10-20T02:24:25.487Z,0
2022-10-20T02:29:06.789Z,0
2022-10-20T02:33:48.997Z,0
2022-10-20T02:38:31.335Z,0
2022-10-20T02:43:13.621Z,0
2022-10-20T02:47:55.829Z,0
2022-10-20T02:52:38.160Z,0
2022-10-20T02:57:20.454Z,0
2022-10-20T03:02:01.765Z,0
2022-10-20T03:06:43.070Z,0
2022-10-20T03:11:24.381Z,0
2022-10-20T03:16:05.687Z,0
2022-10-20T03:20:46.998Z,0
2022-10-20T03:25:28.207Z,0
2022-10-20T03:30:10.518Z,0
2022-10-20T03:34:52.829Z,0
2022-10-20T03:39:35.138Z,0
2022-10-20T03:44:17.348Z,0
2022-10-20T03:48:59.660Z,0
2022-10-20T03:53:41.969Z,0
2022-10-20T03:58:24.187Z,0
2022-10-20T04:03:06.503Z,0
2022-10-20T04:07:48.802Z,0
2022-10-20T04:12:31.015Z,0
2022-10-20T04:17:13.328Z,0
2022-10-20T04:21:55.640Z,0
2022-10-20T04:26:36.943Z,0
2022-10-20T04:31:19.157Z,0
2022-10-20T04:36:01.479Z,0
2022-10-20T04:40:43.778Z,0
2022-10-20T04:45:25.988Z,0
2022-10-20T04:50:08.320Z,0
2022-10-20T04:54:50.608Z,0
2022-10-20T04:59:31.922Z,0
2022-10-20T05:04:13.231Z,0
2022-10-20T05:08:54.535Z,0
2022-10-20T05:13:35.846Z,0
2022-10-20T05:18:18.062Z,0
2022-10-20T05:23:00.371Z,0
2022-10-20T05:27:42.774Z,0
2022-10-20T05:32:24.984Z,0
2022-10-20T05:37:07.315Z,5
2022-10-20T05:41:49.661Z,5
2022-10-20T05:46:31.984Z,11
2022-10-20T05:51:14.156Z,16
2022-10-20T05:55:56.500Z,22
2022-10-20T06:00:38.781Z,28
2022-10-20T06:05:21.066Z,39
2022-10-20T06:10:03.178Z,45
2022-10-20T06:14:44.489Z,56
2022-10-20T06:19:26.939Z,67
2022-10-20T06:24:09.151Z,78
2022-10-20T06:28:51.476Z,90
2022-10-20T06:33:33.776Z,90
2022-10-20T06:38:15.903Z,95
2022-10-20T06:42:58.299Z,101
2022-10-20T06:47:39.473Z,106
2022-10-20T06:52:20.937Z,118
2022-10-20T06:57:02.156Z,151
2022-10-20T07:01:43.550Z,191
2022-10-20T07:06:25.846Z,157
2022-10-20T07:11:08.088Z,151
2022-10-20T07:15:50.407Z,163
2022-10-20T07:20:32.536Z,168
2022-10-20T07:25:14.744Z,168
2022-10-20T07:29:57.058Z,168
2022-10-20T07:34:39.366Z,163
2022-10-20T07:39:21.652Z,163
2022-10-20T07:44:04.070Z,163
2022-10-20T07:48:46.301Z,174
2022-10-20T07:53:28.513Z,180
2022-10-20T07:58:10.859Z,225
2022-10-20T08:02:52.149Z,225
2022-10-20T08:07:34.498Z,236
2022-10-20T08:12:16.646Z,253
2022-10-20T08:16:59.534Z,241
2022-10-20T08:21:41.298Z,219
2022-10-20T08:26:23.654Z,208
2022-10-20T08:31:05.735Z,427
2022-10-20T08:35:47.063Z,270
2022-10-20T08:40:28.365Z,286
2022-10-20T08:45:09.715Z,298
2022-10-20T08:49:51.043Z,303
2022-10-20T08:54:33.284Z,365
2022-10-20T08:59:15.490Z,315
2022-10-20T09:03:57.771Z,416
2022-10-20T09:08:40.081Z,495
2022-10-20T09:13:22.304Z,641
2022-10-20T09:18:04.612Z,1051
2022-10-20T09:22:47.009Z,393
2022-10-20T09:27:29.163Z,1231
2022-10-20T09:32:11.514Z,888
2022-10-20T09:36:53.788Z,1068
2022-10-20T09:41:35.959Z,1158
2022-10-20T09:46:18.273Z,1125
2022-10-20T09:50:59.685Z,1046
2022-10-20T09:55:41.970Z,1237
2022-10-20T10:00:24.170Z,1192
2022-10-20T10:05:06.415Z,1147
2022-10-20T10:09:48.728Z,1271
2022-10-20T10:14:30.939Z,1226
2022-10-20T10:19:13.248Z,1462
2022-10-20T10:23:54.746Z,1485
2022-10-20T10:28:35.866Z,1366
2022-10-20T10:33:18.123Z,1293
2022-10-20T10:42:41.764Z,1215
2022-10-20T10:47:23.017Z,1411
2022-10-20T10:52:04.421Z,1068
2022-10-20T10:56:46.631Z,1248
2022-10-20T11:01:28.851Z,1254
2022-10-20T11:06:11.199Z,1271
2022-10-20T11:10:53.501Z,1102
2022-10-20T11:15:35.693Z,1288
2022-10-20T11:20:17.999Z,1119
2022-10-20T11:25:00.304Z,1535
2022-10-20T11:29:42.576Z,1468
2022-10-20T11:34:24.824Z,1563
2022-10-20T11:39:07.153Z,1198
2022-10-20T11:43:49.459Z,1411
2022-10-20T11:48:31.668Z,1383
2022-10-20T11:53:12.977Z,1468
2022-10-20T11:57:55.278Z,1659
2022-10-20T12:02:37.505Z,1558
2022-10-20T12:07:19.799Z,1693
2022-10-20T12:12:02.108Z,1518
2022-10-20T12:16:44.330Z,585
2022-10-20T12:21:26.645Z,1057
2022-10-20T12:26:07.946Z,1108
2022-10-20T12:30:49.257Z,995
2022-10-20T12:35:30.566Z,826
2022-10-20T12:40:11.901Z,680
2022-10-20T12:44:54.093Z,455
2022-10-20T12:49:36.394Z,455
2022-10-20T12:54:18.709Z,444
2022-10-20T12:59:00.926Z,506
2022-10-20T13:03:43.230Z,675
2022-10-20T13:08:25.545Z,669
2022-10-20T13:13:07.858Z,556
2022-10-20T13:17:50.117Z,641
2022-10-20T13:22:32.406Z,551
2022-10-20T13:27:14.697Z,472
2022-10-20T13:31:56.955Z,410
2022-10-20T13:36:39.231Z,388
2022-10-20T13:41:20.530Z,393
2022-10-20T13:46:02.738Z,388
2022-10-20T13:50:45.047Z,416
2022-10-20T13:55:27.360Z,483
2022-10-20T14:00:09.570Z,523
2022-10-20T14:04:51.881Z,427
2022-10-20T14:09:34.200Z,399
2022-10-20T14:14:15.500Z,371
2022-10-20T14:18:56.815Z,343
2022-10-20T14:23:39.049Z,286
2022-10-20T14:28:21.332Z,253
2022-10-20T14:33:03.669Z,264
2022-10-20T14:37:45.855Z,253
2022-10-20T14:42:28.167Z,213
2022-10-20T14:47:10.626Z,174
2022-10-20T14:51:52.832Z,146
2022-10-20T14:56:35.009Z,140
2022-10-20T15:01:17.307Z,135
2022-10-20T15:05:59.536Z,129
2022-10-20T15:10:41.835Z,106
2022-10-20T15:15:24.158Z,90
2022-10-20T15:20:05.456Z,78
2022-10-20T15:24:47.669Z,78
2022-10-20T15:29:29.976Z,73
2022-10-20T15:34:12.284Z,61
2022-10-20T15:38:54.500Z,45
2022-10-20T15:43:36.810Z,33
2022-10-20T15:48:19.123Z,22
2022-10-20T15:53:00.430Z,16
2022-10-20T15:57:41.740Z,11
2022-10-20T16:02:23.051Z,5
2022-10-20T16:07:04.260Z,5
2022-10-20T16:11:46.580Z,0
2022-10-20T16:16:28.884Z,0
2022-10-20T16:21:11.148Z,0
2022-10-20T16:25:53.402Z,0
2022-10-20T16:30:35.716Z,0
2022-10-20T16:35:18.019Z,0
2022-10-20T16:40:00.239Z,0
2022-10-20T16:44:42.552Z,0
2022-10-20T16:49:24.857Z,0
2022-10-20T16:54:07.070Z,0
2022-10-20T16:58:49.381Z,0
2022-10-20T17:08:13.944Z,0
2022-10-20T17:12:55.254Z,0
2022-10-20T17:17:37.486Z,0
2022-10-20T17:22:19.772Z,0
2022-10-20T17:27:02.085Z,0
2022-10-20T17:31:44.297Z,0
2022-10-20T17:36:26.611Z,0
2022-10-20T17:41:08.935Z,0
2022-10-20T17:45:51.132Z,0
2022-10-20T17:50:32.441Z,0
2022-10-20T17:55:13.751Z,0
2022-10-20T17:59:55.067Z,0
2022-10-20T18:04:36.377Z,0
2022-10-20T18:09:18.682Z,0
2022-10-20T18:14:00.994Z,0
2022-10-20T18:18:43.245Z,0
2022-10-20T18:23:25.519Z,0
2022-10-20T18:28:07.854Z,0
2022-10-20T18:32:50.098Z,0
2022-10-20T18:37:32.397Z,0
2022-10-20T18:42:14.662Z,0
2022-10-20T18:46:56.878Z,0
2022-10-20T18:51:39.186Z,0
2022-10-20T18:56:21.496Z,0
2022-10-20T19:01:03.710Z,0
2022-10-20T19:05:45.015Z,0
2022-10-20T19:10:27.323Z,0
2022-10-20T19:15:09.647Z,0
2022-10-20T19:19:51.856Z,0
2022-10-20T19:24:34.163Z,0
2022-10-20T19:29:16.471Z,0
2022-10-20T19:33:58.701Z,0
2022-10-20T19:38:39.994Z,0
2022-10-20T19:43:21.304Z,0
2022-10-20T19:48:02.609Z,0
2022-10-20T19:52:43.925Z,0
2022-10-20T19:57:26.230Z,0
2022-10-20T20:02:08.451Z,0
2022-10-20T20:06:50.769Z,0
2022-10-20T20:11:33.072Z,0
2022-10-20T20:16:15.313Z,0
2022-10-20T20:20:57.587Z,0
2022-10-20T20:25:39.925Z,0
2022-10-20T20:30:22.115Z,0
2022-10-20T20:35:04.424Z,0
2022-10-20T20:39:46.735Z,0
2022-10-20T20:44:28.941Z,0
2022-10-20T20:49:11.258Z,0
2022-10-20T20:53:52.565Z,0
2022-10-20T20:58:34.873Z,0
2022-10-20T21:03:17.087Z,0
2022-10-20T21:07:59.402Z,0
2022-10-20T21:12:41.710Z,0
2022-10-20T21:17:23.921Z,0
2022-10-20T21:22:06.230Z,0
2022-10-20T21:26:47.551Z,0
2022-10-20T21:31:28.868Z,0
2022-10-20T21:36:10.164Z,0
2022-10-20T21:40:51.474Z,0
2022-10-20T21:45:33.782Z,0
2022-10-20T21:50:16.021Z,0
2022-10-20T21:54:58.300Z,0
2022-10-20T21:59:40.615Z,0
2022-10-20T22:04:22.822Z,0
2022-10-20T22:09:05.135Z,0
2022-10-20T22:13:47.449Z,0
2022-10-20T22:18:29.665Z,0
2022-10-20T22:23:11.981Z,0
2022-10-20T22:27:54.285Z,0
2022-10-20T22:32:36.495Z,0
2022-10-20T22:37:18.803Z,0
2022-10-20T22:42:00.137Z,0
2022-10-20T22:46:42.424Z,0
2022-10-20T22:51:24.636Z,0
2022-10-20T22:56:06.947Z,0
2022-10-20T23:00:49.255Z,0
2022-10-20T23:05:31.467Z,0
2022-10-20T23:10:13.783Z,0
2022-10-20T23:14:55.091Z,0
2022-10-20T23:19:36.402Z,0
2022-10-20T23:24:17.727Z,0
2022-10-20T23:28:59.034Z,0
2022-10-20T23:33:41.232Z,0
2022-10-20T23:38:23.542Z,0
2022-10-20T23:43:05.855Z,0
2022-10-20T23:47:48.063Z,0
2022-10-20T23:52:30.385Z,0
2022-10-20T23:57:12.688Z,0
